sensor_id;sensor_type;location;lat;lon;timestamp;P1;durP1;ratioP1;P2;durP2;ratioP2
32633;SDS011;19043;51.012;5.648;2023-03-23T00:02:13;5.10;;;2.47;;
32633;SDS011;19043;51.012;5.648;2023-03-23T00:04:39;8.57;;;2.05;;
32633;SDS011;19043;51.012;5.648;2023-03-23T00:07:04;4.97;;;2.30;;
32633;SDS011;19043;51.012;5.648;2023-03-23T00:09:30;5.95;;;2.72;;
32633;SDS011;19043;51.012;5.648;2023-03-23T00:11:59;3.53;;;2.10;;
32633;SDS011;19043;51.012;5.648;2023-03-23T00:14:31;4.82;;;2.58;;
32633;SDS011;19043;51.012;5.648;2023-03-23T00:17:06;8.75;;;2.75;;
32633;SDS011;19043;51.012;5.648;2023-03-23T00:19:31;4.60;;;2.42;;
32633;SDS011;19043;51.012;5.648;2023-03-23T00:21:57;6.75;;;3.03;;
32633;SDS011;19043;51.012;5.648;2023-03-23T00:24:25;4.95;;;2.50;;
32633;SDS011;19043;51.012;5.648;2023-03-23T00:26:51;8.85;;;1.98;;
32633;SDS011;19043;51.012;5.648;2023-03-23T00:29:18;4.88;;;2.50;;
32633;SDS011;19043;51.012;5.648;2023-03-23T00:31:44;5.93;;;2.35;;
32633;SDS011;19043;51.012;5.648;2023-03-23T00:34:17;3.60;;;2.30;;
32633;SDS011;19043;51.012;5.648;2023-03-23T00:36:52;5.57;;;3.15;;
32633;SDS011;19043;51.012;5.648;2023-03-23T00:39:21;3.63;;;2.22;;
32633;SDS011;19043;51.012;5.648;2023-03-23T00:41:49;5.65;;;2.95;;
32633;SDS011;19043;51.012;5.648;2023-03-23T00:44:15;4.35;;;2.60;;
32633;SDS011;19043;51.012;5.648;2023-03-23T00:46:42;2.92;;;1.92;;
32633;SDS011;19043;51.012;5.648;2023-03-23T00:49:13;8.30;;;2.33;;
32633;SDS011;19043;51.012;5.648;2023-03-23T00:51:39;3.33;;;2.08;;
32633;SDS011;19043;51.012;5.648;2023-03-23T00:54:05;6.22;;;2.85;;
32633;SDS011;19043;51.012;5.648;2023-03-23T00:56:30;4.22;;;1.83;;
32633;SDS011;19043;51.012;5.648;2023-03-23T00:58:55;6.93;;;2.30;;
32633;SDS011;19043;51.012;5.648;2023-03-23T01:01:21;5.00;;;2.38;;
32633;SDS011;19043;51.012;5.648;2023-03-23T01:03:46;4.72;;;2.63;;
32633;SDS011;19043;51.012;5.648;2023-03-23T01:06:11;6.07;;;2.67;;
32633;SDS011;19043;51.012;5.648;2023-03-23T01:08:38;4.50;;;2.60;;
32633;SDS011;19043;51.012;5.648;2023-03-23T01:11:10;3.95;;;2.53;;
32633;SDS011;19043;51.012;5.648;2023-03-23T01:13:36;5.30;;;2.70;;
32633;SDS011;19043;51.012;5.648;2023-03-23T01:16:01;5.95;;;2.67;;
32633;SDS011;19043;51.012;5.648;2023-03-23T01:18:27;4.40;;;2.40;;
32633;SDS011;19043;51.012;5.648;2023-03-23T01:20:52;4.53;;;2.33;;
32633;SDS011;19043;51.012;5.648;2023-03-23T01:23:17;4.07;;;2.72;;
32633;SDS011;19043;51.012;5.648;2023-03-23T01:25:42;5.10;;;2.60;;
32633;SDS011;19043;51.012;5.648;2023-03-23T01:28:09;4.43;;;2.45;;
32633;SDS011;19043;51.012;5.648;2023-03-23T01:30:35;5.78;;;3.03;;
32633;SDS011;19043;51.012;5.648;2023-03-23T01:33:00;8.90;;;3.05;;
32633;SDS011;19043;51.012;5.648;2023-03-23T01:35:26;4.20;;;2.53;;
32633;SDS011;19043;51.012;5.648;2023-03-23T01:37:51;9.30;;;3.17;;
32633;SDS011;19043;51.012;5.648;2023-03-23T01:40:16;4.63;;;2.72;;
32633;SDS011;19043;51.012;5.648;2023-03-23T01:42:42;4.78;;;2.80;;
32633;SDS011;19043;51.012;5.648;2023-03-23T01:47:48;5.38;;;2.33;;
32633;SDS011;19043;51.012;5.648;2023-03-23T01:50:15;4.90;;;3.05;;
32633;SDS011;19043;51.012;5.648;2023-03-23T01:52:41;5.15;;;2.95;;
32633;SDS011;19043;51.012;5.648;2023-03-23T01:55:06;3.83;;;2.58;;
32633;SDS011;19043;51.012;5.648;2023-03-23T01:57:32;3.75;;;2.55;;
32633;SDS011;19043;51.012;5.648;2023-03-23T02:00:00;4.75;;;3.22;;
32633;SDS011;19043;51.012;5.648;2023-03-23T02:02:31;4.35;;;2.28;;
32633;SDS011;19043;51.012;5.648;2023-03-23T02:05:01;4.85;;;2.60;;
32633;SDS011;19043;51.012;5.648;2023-03-23T02:07:27;4.13;;;2.63;;
32633;SDS011;19043;51.012;5.648;2023-03-23T02:09:52;4.13;;;2.67;;
32633;SDS011;19043;51.012;5.648;2023-03-23T02:12:18;4.55;;;2.70;;
32633;SDS011;19043;51.012;5.648;2023-03-23T02:14:43;7.57;;;3.38;;
32633;SDS011;19043;51.012;5.648;2023-03-23T02:17:10;4.53;;;3.08;;
32633;SDS011;19043;51.012;5.648;2023-03-23T02:32:32;4.82;;;2.40;;
32633;SDS011;19043;51.012;5.648;2023-03-23T02:38:19;4.15;;;2.60;;
32633;SDS011;19043;51.012;5.648;2023-03-23T02:40:38;4.50;;;2.38;;
32633;SDS011;19043;51.012;5.648;2023-03-23T02:43:06;4.82;;;2.50;;
32633;SDS011;19043;51.012;5.648;2023-03-23T02:45:32;4.07;;;2.45;;
32633;SDS011;19043;51.012;5.648;2023-03-23T02:47:58;4.47;;;2.50;;
32633;SDS011;19043;51.012;5.648;2023-03-23T02:50:26;7.43;;;2.63;;
32633;SDS011;19043;51.012;5.648;2023-03-23T02:52:53;6.45;;;3.20;;
32633;SDS011;19043;51.012;5.648;2023-03-23T02:55:19;6.25;;;2.88;;
32633;SDS011;19043;51.012;5.648;2023-03-23T02:57:47;5.57;;;2.47;;
32633;SDS011;19043;51.012;5.648;2023-03-23T03:00:14;4.38;;;2.70;;
32633;SDS011;19043;51.012;5.648;2023-03-23T03:02:41;7.43;;;2.40;;
32633;SDS011;19043;51.012;5.648;2023-03-23T03:05:30;8.13;;;2.45;;
32633;SDS011;19043;51.012;5.648;2023-03-23T03:13:00;4.55;;;2.60;;
32633;SDS011;19043;51.012;5.648;2023-03-23T03:17:55;4.37;;;2.23;;
32633;SDS011;19043;51.012;5.648;2023-03-23T03:20:24;7.13;;;2.25;;
32633;SDS011;19043;51.012;5.648;2023-03-23T03:22:51;3.70;;;2.15;;
32633;SDS011;19043;51.012;5.648;2023-03-23T03:25:17;4.18;;;2.30;;
32633;SDS011;19043;51.012;5.648;2023-03-23T03:27:44;3.35;;;1.95;;
32633;SDS011;19043;51.012;5.648;2023-03-23T03:30:14;3.10;;;1.77;;
32633;SDS011;19043;51.012;5.648;2023-03-23T03:32:45;5.82;;;2.22;;
32633;SDS011;19043;51.012;5.648;2023-03-23T03:35:13;3.42;;;2.05;;
32633;SDS011;19043;51.012;5.648;2023-03-23T03:37:39;4.30;;;2.58;;
32633;SDS011;19043;51.012;5.648;2023-03-23T03:42:36;3.15;;;1.92;;
32633;SDS011;19043;51.012;5.648;2023-03-23T03:45:01;4.10;;;2.65;;
32633;SDS011;19043;51.012;5.648;2023-03-23T03:47:26;5.00;;;2.42;;
32633;SDS011;19043;51.012;5.648;2023-03-23T03:49:51;3.47;;;2.35;;
32633;SDS011;19043;51.012;5.648;2023-03-23T03:52:17;4.95;;;2.78;;
32633;SDS011;19043;51.012;5.648;2023-03-23T03:54:42;7.03;;;2.63;;
32633;SDS011;19043;51.012;5.648;2023-03-23T03:57:07;4.55;;;2.10;;
32633;SDS011;19043;51.012;5.648;2023-03-23T03:59:33;3.80;;;2.03;;
32633;SDS011;19043;51.012;5.648;2023-03-23T04:01:58;6.13;;;2.28;;
32633;SDS011;19043;51.012;5.648;2023-03-23T04:04:23;3.40;;;2.20;;
32633;SDS011;19043;51.012;5.648;2023-03-23T04:06:48;3.33;;;2.17;;
32633;SDS011;19043;51.012;5.648;2023-03-23T04:09:14;3.65;;;1.85;;
32633;SDS011;19043;51.012;5.648;2023-03-23T04:11:39;4.45;;;2.08;;
32633;SDS011;19043;51.012;5.648;2023-03-23T04:14:04;3.22;;;1.80;;
32633;SDS011;19043;51.012;5.648;2023-03-23T04:16:30;4.28;;;2.20;;
32633;SDS011;19043;51.012;5.648;2023-03-23T04:18:55;3.28;;;1.70;;
32633;SDS011;19043;51.012;5.648;2023-03-23T04:21:21;5.07;;;2.30;;
32633;SDS011;19043;51.012;5.648;2023-03-23T04:23:46;4.10;;;2.05;;
32633;SDS011;19043;51.012;5.648;2023-03-23T04:26:12;4.20;;;2.42;;
32633;SDS011;19043;51.012;5.648;2023-03-23T04:28:38;3.88;;;1.98;;
32633;SDS011;19043;51.012;5.648;2023-03-23T04:31:03;3.22;;;1.85;;
32633;SDS011;19043;51.012;5.648;2023-03-23T04:33:29;9.45;;;2.20;;
32633;SDS011;19043;51.012;5.648;2023-03-23T04:35:55;3.88;;;2.10;;
32633;SDS011;19043;51.012;5.648;2023-03-23T04:38:22;4.03;;;2.28;;
32633;SDS011;19043;51.012;5.648;2023-03-23T04:40:48;4.00;;;2.03;;
32633;SDS011;19043;51.012;5.648;2023-03-23T04:43:20;3.88;;;1.73;;
32633;SDS011;19043;51.012;5.648;2023-03-23T04:45:58;3.80;;;1.83;;
32633;SDS011;19043;51.012;5.648;2023-03-23T04:48:26;4.47;;;1.77;;
32633;SDS011;19043;51.012;5.648;2023-03-23T04:50:52;3.60;;;1.40;;
32633;SDS011;19043;51.012;5.648;2023-03-23T04:53:17;5.47;;;2.08;;
32633;SDS011;19043;51.012;5.648;2023-03-23T04:55:43;3.70;;;2.05;;
32633;SDS011;19043;51.012;5.648;2023-03-23T04:58:08;3.60;;;1.58;;
32633;SDS011;19043;51.012;5.648;2023-03-23T05:00:34;3.08;;;1.63;;
32633;SDS011;19043;51.012;5.648;2023-03-23T05:02:59;5.90;;;1.95;;
32633;SDS011;19043;51.012;5.648;2023-03-23T05:05:25;5.07;;;2.28;;
32633;SDS011;19043;51.012;5.648;2023-03-23T05:07:52;3.90;;;1.60;;
32633;SDS011;19043;51.012;5.648;2023-03-23T05:10:18;6.13;;;2.17;;
32633;SDS011;19043;51.012;5.648;2023-03-23T05:12:43;4.53;;;2.58;;
32633;SDS011;19043;51.012;5.648;2023-03-23T05:15:10;6.72;;;2.22;;
32633;SDS011;19043;51.012;5.648;2023-03-23T05:17:36;3.80;;;1.83;;
32633;SDS011;19043;51.012;5.648;2023-03-23T05:20:02;8.02;;;2.35;;
32633;SDS011;19043;51.012;5.648;2023-03-23T05:22:33;8.95;;;2.63;;
32633;SDS011;19043;51.012;5.648;2023-03-23T05:24:58;6.35;;;2.28;;
32633;SDS011;19043;51.012;5.648;2023-03-23T05:27:24;4.40;;;2.08;;
32633;SDS011;19043;51.012;5.648;2023-03-23T05:29:52;4.57;;;2.22;;
32633;SDS011;19043;51.012;5.648;2023-03-23T05:32:18;6.28;;;2.20;;
32633;SDS011;19043;51.012;5.648;2023-03-23T05:34:45;4.45;;;1.95;;
32633;SDS011;19043;51.012;5.648;2023-03-23T05:37:11;10.13;;;2.08;;
32633;SDS011;19043;51.012;5.648;2023-03-23T05:39:37;3.83;;;1.85;;
32633;SDS011;19043;51.012;5.648;2023-03-23T05:42:03;8.57;;;2.67;;
32633;SDS011;19043;51.012;5.648;2023-03-23T05:44:29;5.53;;;1.65;;
32633;SDS011;19043;51.012;5.648;2023-03-23T05:46:54;6.53;;;1.75;;
32633;SDS011;19043;51.012;5.648;2023-03-23T05:49:20;6.55;;;2.00;;
32633;SDS011;19043;51.012;5.648;2023-03-23T05:51:45;5.68;;;1.70;;
32633;SDS011;19043;51.012;5.648;2023-03-23T05:54:11;8.88;;;1.92;;
32633;SDS011;19043;51.012;5.648;2023-03-23T05:56:36;5.38;;;2.15;;
32633;SDS011;19043;51.012;5.648;2023-03-23T05:59:02;4.22;;;2.05;;
32633;SDS011;19043;51.012;5.648;2023-03-23T06:01:27;4.22;;;2.28;;
32633;SDS011;19043;51.012;5.648;2023-03-23T06:03:53;4.35;;;1.42;;
32633;SDS011;19043;51.012;5.648;2023-03-23T06:06:19;8.02;;;1.92;;
32633;SDS011;19043;51.012;5.648;2023-03-23T06:08:45;3.72;;;1.73;;
32633;SDS011;19043;51.012;5.648;2023-03-23T06:11:10;5.72;;;2.13;;
32633;SDS011;19043;51.012;5.648;2023-03-23T06:13:35;4.35;;;2.10;;
32633;SDS011;19043;51.012;5.648;2023-03-23T06:16:01;4.53;;;2.10;;
32633;SDS011;19043;51.012;5.648;2023-03-23T06:18:27;3.42;;;1.90;;
32633;SDS011;19043;51.012;5.648;2023-03-23T06:20:53;4.00;;;1.70;;
32633;SDS011;19043;51.012;5.648;2023-03-23T06:23:18;5.88;;;1.83;;
32633;SDS011;19043;51.012;5.648;2023-03-23T06:25:44;8.40;;;2.65;;
32633;SDS011;19043;51.012;5.648;2023-03-23T06:28:09;3.88;;;2.17;;
32633;SDS011;19043;51.012;5.648;2023-03-23T06:30:36;4.90;;;1.70;;
32633;SDS011;19043;51.012;5.648;2023-03-23T06:33:01;4.40;;;1.55;;
32633;SDS011;19043;51.012;5.648;2023-03-23T06:35:30;4.55;;;1.85;;
32633;SDS011;19043;51.012;5.648;2023-03-23T06:37:55;6.07;;;2.15;;
32633;SDS011;19043;51.012;5.648;2023-03-23T06:40:23;4.38;;;2.15;;
32633;SDS011;19043;51.012;5.648;2023-03-23T06:42:48;4.53;;;1.80;;
32633;SDS011;19043;51.012;5.648;2023-03-23T06:45:13;9.55;;;2.28;;
32633;SDS011;19043;51.012;5.648;2023-03-23T06:47:39;4.03;;;1.65;;
32633;SDS011;19043;51.012;5.648;2023-03-23T06:50:04;7.35;;;1.80;;
32633;SDS011;19043;51.012;5.648;2023-03-23T06:52:30;4.88;;;1.70;;
32633;SDS011;19043;51.012;5.648;2023-03-23T06:54:55;3.53;;;1.70;;
32633;SDS011;19043;51.012;5.648;2023-03-23T06:57:20;3.92;;;1.92;;
32633;SDS011;19043;51.012;5.648;2023-03-23T06:59:46;4.60;;;1.55;;
32633;SDS011;19043;51.012;5.648;2023-03-23T07:02:11;7.88;;;2.05;;
32633;SDS011;19043;51.012;5.648;2023-03-23T07:04:37;4.82;;;2.40;;
32633;SDS011;19043;51.012;5.648;2023-03-23T07:07:03;7.10;;;1.75;;
32633;SDS011;19043;51.012;5.648;2023-03-23T07:09:29;6.53;;;1.55;;
32633;SDS011;19043;51.012;5.648;2023-03-23T07:11:54;5.10;;;1.92;;
32633;SDS011;19043;51.012;5.648;2023-03-23T07:14:19;2.92;;;1.55;;
32633;SDS011;19043;51.012;5.648;2023-03-23T07:16:46;2.20;;;1.13;;
32633;SDS011;19043;51.012;5.648;2023-03-23T07:19:12;3.72;;;1.88;;
32633;SDS011;19043;51.012;5.648;2023-03-23T07:21:37;6.35;;;2.00;;
32633;SDS011;19043;51.012;5.648;2023-03-23T07:24:02;3.55;;;1.65;;
32633;SDS011;19043;51.012;5.648;2023-03-23T07:26:28;4.97;;;1.83;;
32633;SDS011;19043;51.012;5.648;2023-03-23T07:28:53;5.70;;;2.13;;
32633;SDS011;19043;51.012;5.648;2023-03-23T07:31:18;6.57;;;2.13;;
32633;SDS011;19043;51.012;5.648;2023-03-23T07:33:43;5.38;;;1.73;;
32633;SDS011;19043;51.012;5.648;2023-03-23T07:36:09;4.57;;;1.90;;
32633;SDS011;19043;51.012;5.648;2023-03-23T07:38:34;3.83;;;1.73;;
32633;SDS011;19043;51.012;5.648;2023-03-23T07:41:00;6.75;;;1.88;;
32633;SDS011;19043;51.012;5.648;2023-03-23T07:43:26;8.02;;;1.85;;
32633;SDS011;19043;51.012;5.648;2023-03-23T07:45:52;4.38;;;1.48;;
32633;SDS011;19043;51.012;5.648;2023-03-23T07:48:17;7.55;;;2.63;;
32633;SDS011;19043;51.012;5.648;2023-03-23T07:50:42;4.97;;;1.92;;
32633;SDS011;19043;51.012;5.648;2023-03-23T07:53:08;6.15;;;2.03;;
32633;SDS011;19043;51.012;5.648;2023-03-23T07:55:33;3.53;;;1.73;;
32633;SDS011;19043;51.012;5.648;2023-03-23T07:57:59;4.35;;;2.03;;
32633;SDS011;19043;51.012;5.648;2023-03-23T08:00:24;6.07;;;2.00;;
32633;SDS011;19043;51.012;5.648;2023-03-23T08:02:51;4.63;;;2.17;;
32633;SDS011;19043;51.012;5.648;2023-03-23T08:05:17;5.35;;;1.67;;
32633;SDS011;19043;51.012;5.648;2023-03-23T08:07:43;7.55;;;2.20;;
32633;SDS011;19043;51.012;5.648;2023-03-23T08:10:08;4.53;;;2.10;;
32633;SDS011;19043;51.012;5.648;2023-03-23T08:12:40;7.07;;;2.17;;
32633;SDS011;19043;51.012;5.648;2023-03-23T08:15:06;5.85;;;2.15;;
32633;SDS011;19043;51.012;5.648;2023-03-23T08:17:33;7.20;;;2.35;;
32633;SDS011;19043;51.012;5.648;2023-03-23T08:19:59;4.63;;;1.45;;
32633;SDS011;19043;51.012;5.648;2023-03-23T08:22:24;8.30;;;2.40;;
32633;SDS011;19043;51.012;5.648;2023-03-23T08:24:50;5.55;;;2.35;;
32633;SDS011;19043;51.012;5.648;2023-03-23T08:27:15;4.88;;;2.00;;
32633;SDS011;19043;51.012;5.648;2023-03-23T08:29:40;5.93;;;1.75;;
32633;SDS011;19043;51.012;5.648;2023-03-23T08:32:06;6.07;;;1.90;;
32633;SDS011;19043;51.012;5.648;2023-03-23T08:34:31;5.05;;;1.80;;
32633;SDS011;19043;51.012;5.648;2023-03-23T08:36:57;3.50;;;1.67;;
32633;SDS011;19043;51.012;5.648;2023-03-23T08:39:22;7.38;;;1.83;;
32633;SDS011;19043;51.012;5.648;2023-03-23T08:41:48;4.53;;;1.73;;
32633;SDS011;19043;51.012;5.648;2023-03-23T08:44:14;6.18;;;1.67;;
32633;SDS011;19043;51.012;5.648;2023-03-23T08:46:39;9.85;;;2.00;;
32633;SDS011;19043;51.012;5.648;2023-03-23T08:49:04;4.50;;;2.10;;
32633;SDS011;19043;51.012;5.648;2023-03-23T08:51:30;5.60;;;1.25;;
32633;SDS011;19043;51.012;5.648;2023-03-23T08:53:56;1.42;;;0.45;;
32633;SDS011;19043;51.012;5.648;2023-03-23T08:56:21;5.00;;;0.90;;
32633;SDS011;19043;51.012;5.648;2023-03-23T08:58:47;2.13;;;0.52;;
32633;SDS011;19043;51.012;5.648;2023-03-23T09:01:13;1.65;;;0.60;;
32633;SDS011;19043;51.012;5.648;2023-03-23T09:03:39;1.90;;;0.50;;
32633;SDS011;19043;51.012;5.648;2023-03-23T09:06:06;2.15;;;0.52;;
32633;SDS011;19043;51.012;5.648;2023-03-23T09:08:31;4.43;;;1.00;;
32633;SDS011;19043;51.012;5.648;2023-03-23T09:11:00;2.33;;;0.88;;
32633;SDS011;19043;51.012;5.648;2023-03-23T09:13:26;2.85;;;1.05;;
32633;SDS011;19043;51.012;5.648;2023-03-23T09:15:51;2.20;;;0.93;;
32633;SDS011;19043;51.012;5.648;2023-03-23T09:18:17;2.33;;;1.00;;
32633;SDS011;19043;51.012;5.648;2023-03-23T09:20:43;2.25;;;1.05;;
32633;SDS011;19043;51.012;5.648;2023-03-23T09:23:08;2.63;;;1.00;;
32633;SDS011;19043;51.012;5.648;2023-03-23T09:25:33;4.30;;;1.35;;
32633;SDS011;19043;51.012;5.648;2023-03-23T09:27:59;1.48;;;0.80;;
32633;SDS011;19043;51.012;5.648;2023-03-23T09:30:26;3.25;;;0.93;;
32633;SDS011;19043;51.012;5.648;2023-03-23T09:32:52;2.38;;;0.80;;
32633;SDS011;19043;51.012;5.648;2023-03-23T09:35:17;4.20;;;1.15;;
32633;SDS011;19043;51.012;5.648;2023-03-23T09:37:46;2.63;;;1.10;;
32633;SDS011;19043;51.012;5.648;2023-03-23T09:40:15;3.45;;;1.10;;
32633;SDS011;19043;51.012;5.648;2023-03-23T09:45:35;2.67;;;1.33;;
32633;SDS011;19043;51.012;5.648;2023-03-23T09:50:36;3.38;;;1.40;;
32633;SDS011;19043;51.012;5.648;2023-03-23T09:53:14;4.03;;;1.40;;
32633;SDS011;19043;51.012;5.648;2023-03-23T09:55:41;3.47;;;1.40;;
32633;SDS011;19043;51.012;5.648;2023-03-23T09:58:14;5.43;;;1.73;;
32633;SDS011;19043;51.012;5.648;2023-03-23T10:00:54;2.80;;;1.05;;
32633;SDS011;19043;51.012;5.648;2023-03-23T10:03:21;8.05;;;1.77;;
32633;SDS011;19043;51.012;5.648;2023-03-23T10:05:49;4.45;;;1.95;;
32633;SDS011;19043;51.012;5.648;2023-03-23T10:08:18;2.45;;;1.00;;
32633;SDS011;19043;51.012;5.648;2023-03-23T10:13:36;8.10;;;1.70;;
32633;SDS011;19043;51.012;5.648;2023-03-23T10:16:12;4.53;;;1.95;;
32633;SDS011;19043;51.012;5.648;2023-03-23T10:21:04;4.50;;;2.58;;
32633;SDS011;19043;51.012;5.648;2023-03-23T10:26:06;6.35;;;2.95;;
32633;SDS011;19043;51.012;5.648;2023-03-23T10:28:37;5.35;;;2.47;;
32633;SDS011;19043;51.012;5.648;2023-03-23T10:31:09;5.55;;;2.65;;
32633;SDS011;19043;51.012;5.648;2023-03-23T10:36:09;13.63;;;2.55;;
32633;SDS011;19043;51.012;5.648;2023-03-23T10:41:06;4.50;;;2.40;;
32633;SDS011;19043;51.012;5.648;2023-03-23T10:43:34;4.25;;;2.47;;
32633;SDS011;19043;51.012;5.648;2023-03-23T10:46:01;5.90;;;2.40;;
32633;SDS011;19043;51.012;5.648;2023-03-23T10:48:31;7.72;;;2.88;;
32633;SDS011;19043;51.012;5.648;2023-03-23T10:51:02;3.60;;;2.28;;
32633;SDS011;19043;51.012;5.648;2023-03-23T10:53:32;5.05;;;2.38;;
32633;SDS011;19043;51.012;5.648;2023-03-23T10:55:59;4.38;;;2.47;;
32633;SDS011;19043;51.012;5.648;2023-03-23T10:58:26;6.00;;;2.92;;
32633;SDS011;19043;51.012;5.648;2023-03-23T11:00:54;9.77;;;3.45;;
32633;SDS011;19043;51.012;5.648;2023-03-23T11:03:24;6.28;;;3.08;;
32633;SDS011;19043;51.012;5.648;2023-03-23T11:05:52;7.82;;;3.28;;
32633;SDS011;19043;51.012;5.648;2023-03-23T11:08:19;7.00;;;3.42;;
32633;SDS011;19043;51.012;5.648;2023-03-23T11:10:49;6.40;;;3.45;;
32633;SDS011;19043;51.012;5.648;2023-03-23T11:13:16;5.03;;;3.03;;
32633;SDS011;19043;51.012;5.648;2023-03-23T11:15:43;6.30;;;2.92;;
32633;SDS011;19043;51.012;5.648;2023-03-23T11:18:20;5.43;;;2.97;;
32633;SDS011;19043;51.012;5.648;2023-03-23T11:20:49;6.32;;;2.47;;
32633;SDS011;19043;51.012;5.648;2023-03-23T11:23:22;4.90;;;2.58;;
32633;SDS011;19043;51.012;5.648;2023-03-23T11:28:21;5.95;;;2.22;;
32633;SDS011;19043;51.012;5.648;2023-03-23T11:30:52;3.83;;;1.92;;
32633;SDS011;19043;51.012;5.648;2023-03-23T11:33:18;6.25;;;2.45;;
32633;SDS011;19043;51.012;5.648;2023-03-23T11:35:44;5.05;;;2.00;;
32633;SDS011;19043;51.012;5.648;2023-03-23T11:38:20;5.60;;;2.30;;
32633;SDS011;19043;51.012;5.648;2023-03-23T11:40:50;7.18;;;2.25;;
32633;SDS011;19043;51.012;5.648;2023-03-23T11:43:23;6.18;;;2.20;;
32633;SDS011;19043;51.012;5.648;2023-03-23T11:45:56;3.42;;;1.95;;
32633;SDS011;19043;51.012;5.648;2023-03-23T11:48:32;4.15;;;1.98;;
32633;SDS011;19043;51.012;5.648;2023-03-23T11:53:50;6.00;;;2.38;;
32633;SDS011;19043;51.012;5.648;2023-03-23T11:56:23;6.50;;;3.25;;
32633;SDS011;19043;51.012;5.648;2023-03-23T11:58:50;5.88;;;3.10;;
32633;SDS011;19043;51.012;5.648;2023-03-23T12:08:57;5.90;;;2.40;;
32633;SDS011;19043;51.012;5.648;2023-03-23T12:14:13;5.50;;;2.13;;
32633;SDS011;19043;51.012;5.648;2023-03-23T12:30:04;6.00;;;3.10;;
32633;SDS011;19043;51.012;5.648;2023-03-23T12:35:14;6.05;;;2.85;;
32633;SDS011;19043;51.012;5.648;2023-03-23T12:40:22;7.90;;;3.05;;
32633;SDS011;19043;51.012;5.648;2023-03-23T12:48:24;6.05;;;3.33;;
32633;SDS011;19043;51.012;5.648;2023-03-23T12:51:02;6.17;;;3.10;;
32633;SDS011;19043;51.012;5.648;2023-03-23T12:53:33;6.03;;;2.90;;
32633;SDS011;19043;51.012;5.648;2023-03-23T12:59:03;6.13;;;2.88;;
32633;SDS011;19043;51.012;5.648;2023-03-23T13:01:33;5.32;;;2.50;;
32633;SDS011;19043;51.012;5.648;2023-03-23T13:04:02;5.45;;;2.50;;
32633;SDS011;19043;51.012;5.648;2023-03-23T13:06:45;5.07;;;2.38;;
32633;SDS011;19043;51.012;5.648;2023-03-23T13:11:47;5.40;;;2.05;;
32633;SDS011;19043;51.012;5.648;2023-03-23T13:14:16;3.88;;;1.75;;
32633;SDS011;19043;51.012;5.648;2023-03-23T13:19:26;4.22;;;1.90;;
32633;SDS011;19043;51.012;5.648;2023-03-23T13:22:02;4.15;;;1.83;;
32633;SDS011;19043;51.012;5.648;2023-03-23T13:24:29;4.15;;;1.90;;
32633;SDS011;19043;51.012;5.648;2023-03-23T13:26:56;4.07;;;1.95;;
32633;SDS011;19043;51.012;5.648;2023-03-23T13:29:23;5.20;;;2.22;;
32633;SDS011;19043;51.012;5.648;2023-03-23T13:31:52;5.90;;;2.38;;
32633;SDS011;19043;51.012;5.648;2023-03-23T13:34:29;6.88;;;2.10;;
32633;SDS011;19043;51.012;5.648;2023-03-23T13:37:41;6.50;;;2.40;;
32633;SDS011;19043;51.012;5.648;2023-03-23T13:39:52;3.53;;;1.65;;
32633;SDS011;19043;51.012;5.648;2023-03-23T13:42:21;3.55;;;2.03;;
32633;SDS011;19043;51.012;5.648;2023-03-23T13:54:47;5.97;;;2.45;;
32633;SDS011;19043;51.012;5.648;2023-03-23T13:57:48;5.47;;;2.63;;
32633;SDS011;19043;51.012;5.648;2023-03-23T14:00:12;7.05;;;2.78;;
32633;SDS011;19043;51.012;5.648;2023-03-23T14:02:49;7.75;;;3.45;;
32633;SDS011;19043;51.012;5.648;2023-03-23T14:07:52;7.45;;;3.22;;
32633;SDS011;19043;51.012;5.648;2023-03-23T14:10:18;13.90;;;3.25;;
32633;SDS011;19043;51.012;5.648;2023-03-23T14:12:43;8.45;;;4.45;;
32633;SDS011;19043;51.012;5.648;2023-03-23T14:15:13;6.93;;;3.25;;
32633;SDS011;19043;51.012;5.648;2023-03-23T14:17:42;7.60;;;4.55;;
32633;SDS011;19043;51.012;5.648;2023-03-23T14:20:29;6.90;;;4.00;;
32633;SDS011;19043;51.012;5.648;2023-03-23T14:22:55;6.22;;;3.20;;
32633;SDS011;19043;51.012;5.648;2023-03-23T14:25:21;7.03;;;3.35;;
32633;SDS011;19043;51.012;5.648;2023-03-23T14:27:50;8.60;;;3.75;;
32633;SDS011;19043;51.012;5.648;2023-03-23T14:30:17;8.82;;;3.08;;
32633;SDS011;19043;51.012;5.648;2023-03-23T14:32:43;5.65;;;3.03;;
32633;SDS011;19043;51.012;5.648;2023-03-23T14:35:13;4.68;;;2.63;;
32633;SDS011;19043;51.012;5.648;2023-03-23T14:37:39;6.15;;;2.78;;
32633;SDS011;19043;51.012;5.648;2023-03-23T14:40:04;8.02;;;3.20;;
32633;SDS011;19043;51.012;5.648;2023-03-23T14:42:32;6.05;;;2.53;;
32633;SDS011;19043;51.012;5.648;2023-03-23T14:44:59;8.70;;;2.80;;
32633;SDS011;19043;51.012;5.648;2023-03-23T14:47:27;7.65;;;3.28;;
32633;SDS011;19043;51.012;5.648;2023-03-23T14:49:57;6.90;;;2.85;;
32633;SDS011;19043;51.012;5.648;2023-03-23T14:52:25;11.65;;;2.97;;
32633;SDS011;19043;51.012;5.648;2023-03-23T14:54:50;4.60;;;2.70;;
32633;SDS011;19043;51.012;5.648;2023-03-23T14:57:20;6.53;;;3.17;;
32633;SDS011;19043;51.012;5.648;2023-03-23T14:59:51;7.00;;;2.58;;
32633;SDS011;19043;51.012;5.648;2023-03-23T15:02:18;6.45;;;2.58;;
32633;SDS011;19043;51.012;5.648;2023-03-23T15:04:48;5.93;;;2.58;;
32633;SDS011;19043;51.012;5.648;2023-03-23T15:07:14;5.32;;;2.42;;
32633;SDS011;19043;51.012;5.648;2023-03-23T15:09:42;5.15;;;2.33;;
32633;SDS011;19043;51.012;5.648;2023-03-23T15:12:09;4.18;;;2.25;;
32633;SDS011;19043;51.012;5.648;2023-03-23T15:14:44;5.10;;;2.33;;
32633;SDS011;19043;51.012;5.648;2023-03-23T15:17:11;5.13;;;3.03;;
32633;SDS011;19043;51.012;5.648;2023-03-23T15:19:43;5.93;;;2.97;;
32633;SDS011;19043;51.012;5.648;2023-03-23T15:24:37;7.00;;;2.97;;
32633;SDS011;19043;51.012;5.648;2023-03-23T15:29:31;12.57;;;2.80;;
32633;SDS011;19043;51.012;5.648;2023-03-23T15:31:56;3.60;;;2.13;;
32633;SDS011;19043;51.012;5.648;2023-03-23T15:34:29;7.43;;;2.83;;
32633;SDS011;19043;51.012;5.648;2023-03-23T15:36:59;7.63;;;2.58;;
32633;SDS011;19043;51.012;5.648;2023-03-23T15:39:25;15.02;;;2.22;;
32633;SDS011;19043;51.012;5.648;2023-03-23T15:41:51;5.82;;;1.80;;
32633;SDS011;19043;51.012;5.648;2023-03-23T15:44:24;5.78;;;2.72;;
32633;SDS011;19043;51.012;5.648;2023-03-23T15:46:51;8.70;;;2.97;;
32633;SDS011;19043;51.012;5.648;2023-03-23T15:49:17;5.10;;;2.35;;
32633;SDS011;19043;51.012;5.648;2023-03-23T15:51:42;9.88;;;2.72;;
32633;SDS011;19043;51.012;5.648;2023-03-23T15:54:09;5.72;;;2.40;;
32633;SDS011;19043;51.012;5.648;2023-03-23T15:56:37;6.45;;;2.95;;
32633;SDS011;19043;51.012;5.648;2023-03-23T15:59:02;5.07;;;1.85;;
32633;SDS011;19043;51.012;5.648;2023-03-23T16:01:28;6.10;;;2.30;;
32633;SDS011;19043;51.012;5.648;2023-03-23T16:03:56;8.73;;;2.67;;
32633;SDS011;19043;51.012;5.648;2023-03-23T16:06:23;7.63;;;2.65;;
32633;SDS011;19043;51.012;5.648;2023-03-23T16:08:49;5.30;;;2.67;;
32633;SDS011;19043;51.012;5.648;2023-03-23T16:11:15;5.55;;;2.72;;
32633;SDS011;19043;51.012;5.648;2023-03-23T16:13:41;8.85;;;3.22;;
32633;SDS011;19043;51.012;5.648;2023-03-23T16:16:09;6.03;;;2.33;;
32633;SDS011;19043;51.012;5.648;2023-03-23T16:18:36;14.95;;;2.92;;
32633;SDS011;19043;51.012;5.648;2023-03-23T16:21:01;10.63;;;2.72;;
32633;SDS011;19043;51.012;5.648;2023-03-23T16:23:27;11.18;;;3.13;;
32633;SDS011;19043;51.012;5.648;2023-03-23T16:25:52;7.45;;;2.35;;
32633;SDS011;19043;51.012;5.648;2023-03-23T16:28:18;5.75;;;2.88;;
32633;SDS011;19043;51.012;5.648;2023-03-23T16:30:44;7.18;;;2.88;;
32633;SDS011;19043;51.012;5.648;2023-03-23T16:33:10;4.15;;;2.33;;
32633;SDS011;19043;51.012;5.648;2023-03-23T16:35:35;8.55;;;3.35;;
32633;SDS011;19043;51.012;5.648;2023-03-23T16:38:01;4.85;;;2.58;;
32633;SDS011;19043;51.012;5.648;2023-03-23T16:40:26;7.22;;;2.83;;
32633;SDS011;19043;51.012;5.648;2023-03-23T16:42:51;6.30;;;2.80;;